sensor_id;sensor_type;location;lat;lon;timestamp;P1;durP1;ratioP1;P2;durP2;ratioP2
9240;SDS011;53485;49.326;9.738;2022-09-09T00:00:24;1.77;;;0.60;;
9240;SDS011;53485;49.326;9.738;2022-09-09T00:02:54;4.43;;;0.60;;
9240;SDS011;53485;49.326;9.738;2022-09-09T00:05:29;2.30;;;0.60;;
9240;SDS011;53485;49.326;9.738;2022-09-09T00:07:58;2.30;;;0.50;;
9240;SDS011;53485;49.326;9.738;2022-09-09T00:10:29;2.93;;;0.80;;
9240;SDS011;53485;49.326;9.738;2022-09-09T00:13:03;1.23;;;0.50;;
9240;SDS011;53485;49.326;9.738;2022-09-09T00:15:50;1.43;;;0.70;;
9240;SDS011;53485;49.326;9.738;2022-09-09T00:18:17;0.90;;;0.40;;
9240;SDS011;53485;49.326;9.738;2022-09-09T00:20:49;2.07;;;0.60;;
9240;SDS011;53485;49.326;9.738;2022-09-09T00:23:18;3.07;;;0.60;;
9240;SDS011;53485;49.326;9.738;2022-09-09T00:25:54;2.43;;;0.50;;
9240;SDS011;53485;49.326;9.738;2022-09-09T00:28:33;2.07;;;0.80;;
9240;SDS011;53485;49.326;9.738;2022-09-09T00:31:09;4.10;;;0.60;;
9240;SDS011;53485;49.326;9.738;2022-09-09T00:33:34;2.20;;;0.70;;
9240;SDS011;53485;49.326;9.738;2022-09-09T00:36:02;0.97;;;0.60;;
9240;SDS011;53485;49.326;9.738;2022-09-09T00:38:33;1.93;;;0.80;;
9240;SDS011;53485;49.326;9.738;2022-09-09T00:41:03;2.87;;;0.70;;
9240;SDS011;53485;49.326;9.738;2022-09-09T00:43:32;2.37;;;0.70;;
9240;SDS011;53485;49.326;9.738;2022-09-09T00:46:03;2.00;;;0.70;;
9240;SDS011;53485;49.326;9.738;2022-09-09T00:48:34;2.63;;;0.70;;
9240;SDS011;53485;49.326;9.738;2022-09-09T00:50:59;3.80;;;0.80;;
9240;SDS011;53485;49.326;9.738;2022-09-09T00:56:03;1.70;;;0.60;;
9240;SDS011;53485;49.326;9.738;2022-09-09T00:58:43;3.33;;;0.50;;
9240;SDS011;53485;49.326;9.738;2022-09-09T01:01:09;1.40;;;0.67;;
9240;SDS011;53485;49.326;9.738;2022-09-09T01:03:36;1.00;;;0.50;;
9240;SDS011;53485;49.326;9.738;2022-09-09T01:06:11;1.93;;;0.50;;
9240;SDS011;53485;49.326;9.738;2022-09-09T01:09:47;1.67;;;0.60;;
9240;SDS011;53485;49.326;9.738;2022-09-09T01:11:27;2.10;;;0.60;;
9240;SDS011;53485;49.326;9.738;2022-09-09T01:13:56;2.50;;;0.60;;
9240;SDS011;53485;49.326;9.738;2022-09-09T01:16:23;1.00;;;0.50;;
9240;SDS011;53485;49.326;9.738;2022-09-09T01:18:51;1.27;;;0.50;;
9240;SDS011;53485;49.326;9.738;2022-09-09T01:21:23;3.77;;;0.70;;
9240;SDS011;53485;49.326;9.738;2022-09-09T01:26:34;3.10;;;0.70;;
9240;SDS011;53485;49.326;9.738;2022-09-09T01:29:10;1.13;;;0.60;;
9240;SDS011;53485;49.326;9.738;2022-09-09T01:31:37;1.17;;;0.70;;
9240;SDS011;53485;49.326;9.738;2022-09-09T01:34:08;2.70;;;0.50;;
9240;SDS011;53485;49.326;9.738;2022-09-09T01:36:35;2.47;;;0.70;;
9240;SDS011;53485;49.326;9.738;2022-09-09T01:38:59;1.90;;;0.70;;
9240;SDS011;53485;49.326;9.738;2022-09-09T01:41:27;8.73;;;0.80;;
9240;SDS011;53485;49.326;9.738;2022-09-09T01:43:54;1.90;;;0.60;;
9240;SDS011;53485;49.326;9.738;2022-09-09T01:46:22;2.30;;;0.70;;
9240;SDS011;53485;49.326;9.738;2022-09-09T01:48:49;1.63;;;0.70;;
9240;SDS011;53485;49.326;9.738;2022-09-09T01:51:15;1.47;;;0.50;;
9240;SDS011;53485;49.326;9.738;2022-09-09T01:53:42;3.23;;;0.60;;
9240;SDS011;53485;49.326;9.738;2022-09-09T01:56:21;2.53;;;0.73;;
9240;SDS011;53485;49.326;9.738;2022-09-09T01:59:10;1.70;;;0.50;;
9240;SDS011;53485;49.326;9.738;2022-09-09T02:04:31;3.73;;;0.73;;
9240;SDS011;53485;49.326;9.738;2022-09-09T02:06:57;2.80;;;0.50;;
9240;SDS011;53485;49.326;9.738;2022-09-09T02:09:24;2.70;;;0.60;;
9240;SDS011;53485;49.326;9.738;2022-09-09T02:11:55;1.60;;;0.60;;
9240;SDS011;53485;49.326;9.738;2022-09-09T02:14:21;1.13;;;0.60;;
9240;SDS011;53485;49.326;9.738;2022-09-09T02:16:48;3.17;;;0.67;;
9240;SDS011;53485;49.326;9.738;2022-09-09T02:19:15;1.70;;;0.50;;
9240;SDS011;53485;49.326;9.738;2022-09-09T02:21:42;4.63;;;0.70;;
9240;SDS011;53485;49.326;9.738;2022-09-09T02:24:08;2.33;;;0.57;;
9240;SDS011;53485;49.326;9.738;2022-09-09T02:26:34;5.30;;;0.73;;
9240;SDS011;53485;49.326;9.738;2022-09-09T02:29:01;4.17;;;0.57;;
9240;SDS011;53485;49.326;9.738;2022-09-09T02:31:27;2.17;;;0.50;;
9240;SDS011;53485;49.326;9.738;2022-09-09T02:33:55;1.10;;;0.53;;
9240;SDS011;53485;49.326;9.738;2022-09-09T02:36:22;1.23;;;0.70;;
9240;SDS011;53485;49.326;9.738;2022-09-09T02:38:48;0.50;;;0.50;;
9240;SDS011;53485;49.326;9.738;2022-09-09T02:41:17;1.60;;;0.60;;
9240;SDS011;53485;49.326;9.738;2022-09-09T02:43:43;2.97;;;0.60;;
9240;SDS011;53485;49.326;9.738;2022-09-09T02:46:21;3.93;;;0.57;;
9240;SDS011;53485;49.326;9.738;2022-09-09T02:48:55;1.80;;;0.60;;
9240;SDS011;53485;49.326;9.738;2022-09-09T02:51:21;2.17;;;0.60;;
9240;SDS011;53485;49.326;9.738;2022-09-09T02:53:48;1.37;;;0.60;;
9240;SDS011;53485;49.326;9.738;2022-09-09T02:56:15;1.53;;;0.60;;
9240;SDS011;53485;49.326;9.738;2022-09-09T02:58:42;1.47;;;0.50;;
9240;SDS011;53485;49.326;9.738;2022-09-09T03:01:08;2.30;;;0.70;;
9240;SDS011;53485;49.326;9.738;2022-09-09T03:03:36;1.90;;;0.50;;
9240;SDS011;53485;49.326;9.738;2022-09-09T03:06:03;1.30;;;0.70;;
9240;SDS011;53485;49.326;9.738;2022-09-09T03:08:30;2.63;;;0.43;;
9240;SDS011;53485;49.326;9.738;2022-09-09T03:10:58;3.37;;;0.60;;
9240;SDS011;53485;49.326;9.738;2022-09-09T03:13:24;2.17;;;0.60;;
9240;SDS011;53485;49.326;9.738;2022-09-09T03:15:52;2.10;;;0.50;;
9240;SDS011;53485;49.326;9.738;2022-09-09T03:18:19;3.67;;;0.50;;
9240;SDS011;53485;49.326;9.738;2022-09-09T03:20:46;2.57;;;0.63;;
9240;SDS011;53485;49.326;9.738;2022-09-09T03:23:14;3.30;;;0.60;;
9240;SDS011;53485;49.326;9.738;2022-09-09T03:25:46;1.23;;;0.40;;
9240;SDS011;53485;49.326;9.738;2022-09-09T03:28:12;1.37;;;0.47;;
9240;SDS011;53485;49.326;9.738;2022-09-09T03:30:39;1.57;;;0.50;;
9240;SDS011;53485;49.326;9.738;2022-09-09T03:33:07;3.63;;;0.70;;
9240;SDS011;53485;49.326;9.738;2022-09-09T03:35:34;2.00;;;0.60;;
9240;SDS011;53485;49.326;9.738;2022-09-09T03:38:02;1.60;;;0.60;;
9240;SDS011;53485;49.326;9.738;2022-09-09T03:40:29;1.07;;;0.50;;
9240;SDS011;53485;49.326;9.738;2022-09-09T03:42:56;1.20;;;0.40;;
9240;SDS011;53485;49.326;9.738;2022-09-09T03:45:23;3.63;;;0.60;;
9240;SDS011;53485;49.326;9.738;2022-09-09T03:47:51;2.50;;;0.50;;
9240;SDS011;53485;49.326;9.738;2022-09-09T03:50:18;2.30;;;0.50;;
9240;SDS011;53485;49.326;9.738;2022-09-09T03:52:46;2.10;;;0.50;;
9240;SDS011;53485;49.326;9.738;2022-09-09T03:55:13;2.37;;;0.60;;
9240;SDS011;53485;49.326;9.738;2022-09-09T03:57:40;1.13;;;0.40;;
9240;SDS011;53485;49.326;9.738;2022-09-09T04:00:08;1.47;;;0.40;;
9240;SDS011;53485;49.326;9.738;2022-09-09T04:02:36;0.80;;;0.40;;
9240;SDS011;53485;49.326;9.738;2022-09-09T04:05:03;0.77;;;0.47;;
9240;SDS011;53485;49.326;9.738;2022-09-09T04:07:31;0.90;;;0.50;;
9240;SDS011;53485;49.326;9.738;2022-09-09T04:09:58;4.03;;;0.60;;
9240;SDS011;53485;49.326;9.738;2022-09-09T04:12:25;1.60;;;0.50;;
9240;SDS011;53485;49.326;9.738;2022-09-09T04:14:53;1.70;;;0.67;;
9240;SDS011;53485;49.326;9.738;2022-09-09T04:17:20;1.93;;;0.60;;
9240;SDS011;53485;49.326;9.738;2022-09-09T04:19:48;3.00;;;0.53;;
9240;SDS011;53485;49.326;9.738;2022-09-09T04:22:15;2.90;;;0.60;;
9240;SDS011;53485;49.326;9.738;2022-09-09T04:24:42;1.57;;;0.60;;
9240;SDS011;53485;49.326;9.738;2022-09-09T04:27:10;1.50;;;0.40;;
9240;SDS011;53485;49.326;9.738;2022-09-09T04:29:37;3.17;;;0.50;;
9240;SDS011;53485;49.326;9.738;2022-09-09T04:32:05;3.77;;;0.90;;
9240;SDS011;53485;49.326;9.738;2022-09-09T04:34:32;2.80;;;0.70;;
9240;SDS011;53485;49.326;9.738;2022-09-09T04:37:00;2.77;;;0.70;;
9240;SDS011;53485;49.326;9.738;2022-09-09T04:39:27;1.83;;;0.60;;
9240;SDS011;53485;49.326;9.738;2022-09-09T04:41:54;3.57;;;0.70;;
9240;SDS011;53485;49.326;9.738;2022-09-09T04:44:21;4.17;;;0.60;;
9240;SDS011;53485;49.326;9.738;2022-09-09T04:46:49;0.90;;;0.50;;
9240;SDS011;53485;49.326;9.738;2022-09-09T04:49:16;2.27;;;0.60;;
9240;SDS011;53485;49.326;9.738;2022-09-09T04:51:44;1.00;;;0.50;;
9240;SDS011;53485;49.326;9.738;2022-09-09T04:54:11;1.00;;;0.50;;
9240;SDS011;53485;49.326;9.738;2022-09-09T04:56:38;0.87;;;0.50;;
9240;SDS011;53485;49.326;9.738;2022-09-09T04:59:05;0.77;;;0.50;;
9240;SDS011;53485;49.326;9.738;2022-09-09T05:01:33;2.10;;;0.67;;
9240;SDS011;53485;49.326;9.738;2022-09-09T05:04:00;3.33;;;0.67;;
9240;SDS011;53485;49.326;9.738;2022-09-09T05:06:27;1.33;;;0.60;;
9240;SDS011;53485;49.326;9.738;2022-09-09T05:08:54;3.03;;;0.47;;
9240;SDS011;53485;49.326;9.738;2022-09-09T05:11:22;2.37;;;0.47;;
9240;SDS011;53485;49.326;9.738;2022-09-09T05:13:48;2.03;;;0.60;;
9240;SDS011;53485;49.326;9.738;2022-09-09T05:16:16;2.00;;;0.40;;
9240;SDS011;53485;49.326;9.738;2022-09-09T05:18:42;2.00;;;0.50;;
9240;SDS011;53485;49.326;9.738;2022-09-09T05:21:09;4.03;;;0.60;;
9240;SDS011;53485;49.326;9.738;2022-09-09T05:23:35;1.60;;;0.60;;
9240;SDS011;53485;49.326;9.738;2022-09-09T05:26:02;1.33;;;0.50;;
9240;SDS011;53485;49.326;9.738;2022-09-09T05:28:29;1.57;;;0.60;;
9240;SDS011;53485;49.326;9.738;2022-09-09T05:30:58;3.27;;;0.70;;
9240;SDS011;53485;49.326;9.738;2022-09-09T05:33:24;1.43;;;0.50;;
9240;SDS011;53485;49.326;9.738;2022-09-09T05:35:55;2.10;;;0.60;;
9240;SDS011;53485;49.326;9.738;2022-09-09T05:38:22;2.20;;;0.50;;
9240;SDS011;53485;49.326;9.738;2022-09-09T05:40:49;2.20;;;0.40;;
9240;SDS011;53485;49.326;9.738;2022-09-09T05:43:16;1.80;;;0.50;;
9240;SDS011;53485;49.326;9.738;2022-09-09T05:45:43;1.37;;;0.50;;
9240;SDS011;53485;49.326;9.738;2022-09-09T05:48:10;1.17;;;0.60;;
9240;SDS011;53485;49.326;9.738;2022-09-09T05:50:38;2.70;;;0.60;;
9240;SDS011;53485;49.326;9.738;2022-09-09T05:53:05;2.77;;;0.40;;
9240;SDS011;53485;49.326;9.738;2022-09-09T05:55:32;1.73;;;0.40;;
9240;SDS011;53485;49.326;9.738;2022-09-09T05:58:00;0.70;;;0.40;;
9240;SDS011;53485;49.326;9.738;2022-09-09T06:00:27;1.67;;;0.47;;
9240;SDS011;53485;49.326;9.738;2022-09-09T06:02:54;2.63;;;0.60;;
9240;SDS011;53485;49.326;9.738;2022-09-09T06:05:22;2.20;;;0.60;;
9240;SDS011;53485;49.326;9.738;2022-09-09T06:07:51;2.63;;;0.60;;
9240;SDS011;53485;49.326;9.738;2022-09-09T06:10:15;1.43;;;0.50;;
9240;SDS011;53485;49.326;9.738;2022-09-09T06:12:43;1.67;;;0.70;;
9240;SDS011;53485;49.326;9.738;2022-09-09T06:15:10;0.80;;;0.50;;
9240;SDS011;53485;49.326;9.738;2022-09-09T06:17:37;1.17;;;0.37;;
9240;SDS011;53485;49.326;9.738;2022-09-09T06:20:05;0.57;;;0.50;;
9240;SDS011;53485;49.326;9.738;2022-09-09T06:22:33;1.40;;;0.50;;
9240;SDS011;53485;49.326;9.738;2022-09-09T06:25:00;1.90;;;0.60;;
9240;SDS011;53485;49.326;9.738;2022-09-09T06:27:27;1.30;;;0.50;;
9240;SDS011;53485;49.326;9.738;2022-09-09T06:29:55;1.10;;;0.40;;
9240;SDS011;53485;49.326;9.738;2022-09-09T06:32:22;1.37;;;0.50;;
9240;SDS011;53485;49.326;9.738;2022-09-09T06:34:49;2.27;;;0.43;;
9240;SDS011;53485;49.326;9.738;2022-09-09T06:37:17;2.17;;;0.40;;
9240;SDS011;53485;49.326;9.738;2022-09-09T06:39:44;1.00;;;0.40;;
9240;SDS011;53485;49.326;9.738;2022-09-09T06:42:11;2.00;;;0.40;;
9240;SDS011;53485;49.326;9.738;2022-09-09T06:44:39;2.13;;;0.43;;
9240;SDS011;53485;49.326;9.738;2022-09-09T06:47:06;2.77;;;0.40;;
9240;SDS011;53485;49.326;9.738;2022-09-09T06:49:33;1.03;;;0.23;;
9240;SDS011;53485;49.326;9.738;2022-09-09T06:52:01;0.83;;;0.30;;
9240;SDS011;53485;49.326;9.738;2022-09-09T06:54:28;1.23;;;0.30;;
9240;SDS011;53485;49.326;9.738;2022-09-09T06:56:56;0.70;;;0.30;;
9240;SDS011;53485;49.326;9.738;2022-09-09T06:59:23;0.70;;;0.30;;
9240;SDS011;53485;49.326;9.738;2022-09-09T07:01:50;1.93;;;0.30;;
9240;SDS011;53485;49.326;9.738;2022-09-09T07:04:17;0.87;;;0.20;;
9240;SDS011;53485;49.326;9.738;2022-09-09T07:06:45;2.17;;;0.30;;
9240;SDS011;53485;49.326;9.738;2022-09-09T07:09:13;1.07;;;0.40;;
9240;SDS011;53485;49.326;9.738;2022-09-09T07:11:40;1.73;;;0.23;;
9240;SDS011;53485;49.326;9.738;2022-09-09T07:14:07;2.20;;;0.37;;
9240;SDS011;53485;49.326;9.738;2022-09-09T07:16:34;2.77;;;0.30;;
9240;SDS011;53485;49.326;9.738;2022-09-09T07:19:01;0.87;;;0.30;;
9240;SDS011;53485;49.326;9.738;2022-09-09T07:21:28;1.53;;;0.30;;
9240;SDS011;53485;49.326;9.738;2022-09-09T07:23:55;3.07;;;0.40;;
9240;SDS011;53485;49.326;9.738;2022-09-09T07:26:23;2.57;;;0.43;;
9240;SDS011;53485;49.326;9.738;2022-09-09T07:28:48;1.90;;;0.30;;
9240;SDS011;53485;49.326;9.738;2022-09-09T07:31:17;1.33;;;0.50;;
9240;SDS011;53485;49.326;9.738;2022-09-09T07:33:43;1.17;;;0.20;;
9240;SDS011;53485;49.326;9.738;2022-09-09T07:36:12;0.70;;;0.30;;
9240;SDS011;53485;49.326;9.738;2022-09-09T07:38:39;1.27;;;0.20;;
9240;SDS011;53485;49.326;9.738;2022-09-09T07:41:06;1.53;;;0.40;;
9240;SDS011;53485;49.326;9.738;2022-09-09T07:43:32;2.10;;;0.20;;
9240;SDS011;53485;49.326;9.738;2022-09-09T07:46:00;1.70;;;0.30;;
9240;SDS011;53485;49.326;9.738;2022-09-09T07:48:27;3.20;;;0.40;;
9240;SDS011;53485;49.326;9.738;2022-09-09T07:51:02;2.33;;;0.30;;
9240;SDS011;53485;49.326;9.738;2022-09-09T07:53:20;0.50;;;0.30;;
9240;SDS011;53485;49.326;9.738;2022-09-09T07:55:48;0.77;;;0.40;;
9240;SDS011;53485;49.326;9.738;2022-09-09T07:58:15;1.47;;;0.40;;
9240;SDS011;53485;49.326;9.738;2022-09-09T08:00:42;1.97;;;0.50;;
9240;SDS011;53485;49.326;9.738;2022-09-09T08:03:10;2.53;;;0.50;;
9240;SDS011;53485;49.326;9.738;2022-09-09T08:05:37;1.80;;;0.40;;
9240;SDS011;53485;49.326;9.738;2022-09-09T08:08:04;1.37;;;0.50;;
9240;SDS011;53485;49.326;9.738;2022-09-09T08:10:32;2.27;;;0.30;;
9240;SDS011;53485;49.326;9.738;2022-09-09T08:12:59;3.17;;;0.40;;
9240;SDS011;53485;49.326;9.738;2022-09-09T08:15:26;2.77;;;0.50;;
9240;SDS011;53485;49.326;9.738;2022-09-09T08:17:53;5.30;;;0.67;;
9240;SDS011;53485;49.326;9.738;2022-09-09T08:20:20;1.97;;;0.37;;
9240;SDS011;53485;49.326;9.738;2022-09-09T08:22:47;2.47;;;0.50;;
9240;SDS011;53485;49.326;9.738;2022-09-09T08:25:14;2.23;;;0.33;;
9240;SDS011;53485;49.326;9.738;2022-09-09T08:27:42;2.97;;;0.43;;
9240;SDS011;53485;49.326;9.738;2022-09-09T08:30:09;3.00;;;0.53;;
9240;SDS011;53485;49.326;9.738;2022-09-09T08:32:38;1.50;;;0.40;;
9240;SDS011;53485;49.326;9.738;2022-09-09T08:35:05;1.83;;;0.70;;
9240;SDS011;53485;49.326;9.738;2022-09-09T08:37:33;1.93;;;0.50;;
9240;SDS011;53485;49.326;9.738;2022-09-09T08:40:01;2.37;;;0.40;;
9240;SDS011;53485;49.326;9.738;2022-09-09T08:42:34;2.93;;;0.50;;
9240;SDS011;53485;49.326;9.738;2022-09-09T08:45:03;4.23;;;0.50;;
9240;SDS011;53485;49.326;9.738;2022-09-09T08:47:40;1.70;;;0.60;;
9240;SDS011;53485;49.326;9.738;2022-09-09T08:52:55;5.40;;;0.60;;
9240;SDS011;53485;49.326;9.738;2022-09-09T08:58:14;3.90;;;0.60;;
9240;SDS011;53485;49.326;9.738;2022-09-09T09:04:00;2.70;;;0.70;;
9240;SDS011;53485;49.326;9.738;2022-09-09T09:06:37;4.47;;;0.60;;
9240;SDS011;53485;49.326;9.738;2022-09-09T09:09:15;3.83;;;0.80;;
9240;SDS011;53485;49.326;9.738;2022-09-09T09:11:57;2.90;;;0.60;;
9240;SDS011;53485;49.326;9.738;2022-09-09T09:14:25;1.70;;;0.60;;
9240;SDS011;53485;49.326;9.738;2022-09-09T09:19:28;3.87;;;0.60;;
9240;SDS011;53485;49.326;9.738;2022-09-09T09:22:04;1.92;;;0.50;;
9240;SDS011;53485;49.326;9.738;2022-09-09T09:24:39;2.13;;;0.63;;
9240;SDS011;53485;49.326;9.738;2022-09-09T09:27:07;4.72;;;0.60;;
9240;SDS011;53485;49.326;9.738;2022-09-09T09:29:28;1.67;;;0.50;;
9240;SDS011;53485;49.326;9.738;2022-09-09T09:31:56;3.20;;;0.70;;
9240;SDS011;53485;49.326;9.738;2022-09-09T09:34:23;2.92;;;0.50;;
9240;SDS011;53485;49.326;9.738;2022-09-09T09:36:53;2.63;;;0.50;;
9240;SDS011;53485;49.326;9.738;2022-09-09T09:39:23;1.77;;;0.60;;
9240;SDS011;53485;49.326;9.738;2022-09-09T09:41:57;2.50;;;0.53;;
9240;SDS011;53485;49.326;9.738;2022-09-09T09:44:26;4.23;;;0.47;;
9240;SDS011;53485;49.326;9.738;2022-09-09T09:46:51;3.03;;;0.60;;
9240;SDS011;53485;49.326;9.738;2022-09-09T09:49:18;2.67;;;0.60;;
9240;SDS011;53485;49.326;9.738;2022-09-09T09:51:45;1.77;;;0.47;;
9240;SDS011;53485;49.326;9.738;2022-09-09T09:54:28;2.67;;;0.60;;
9240;SDS011;53485;49.326;9.738;2022-09-09T09:56:54;2.00;;;0.50;;
9240;SDS011;53485;49.326;9.738;2022-09-09T09:59:23;3.77;;;0.50;;
9240;SDS011;53485;49.326;9.738;2022-09-09T10:01:49;2.67;;;0.50;;
9240;SDS011;53485;49.326;9.738;2022-09-09T10:04:18;2.37;;;0.50;;
9240;SDS011;53485;49.326;9.738;2022-09-09T10:06:43;2.13;;;0.40;;
9240;SDS011;53485;49.326;9.738;2022-09-09T10:12:24;1.83;;;0.50;;
9240;SDS011;53485;49.326;9.738;2022-09-09T10:14:52;2.93;;;0.53;;
9240;SDS011;53485;49.326;9.738;2022-09-09T10:17:20;2.40;;;0.40;;
9240;SDS011;53485;49.326;9.738;2022-09-09T10:20:04;3.70;;;0.60;;
9240;SDS011;53485;49.326;9.738;2022-09-09T10:22:27;2.67;;;0.50;;
9240;SDS011;53485;49.326;9.738;2022-09-09T10:25:12;3.03;;;0.60;;
9240;SDS011;53485;49.326;9.738;2022-09-09T10:30:17;1.97;;;0.50;;
9240;SDS011;53485;49.326;9.738;2022-09-09T10:33:50;2.03;;;0.50;;
9240;SDS011;53485;49.326;9.738;2022-09-09T10:35:28;3.30;;;0.33;;
9240;SDS011;53485;49.326;9.738;2022-09-09T10:40:58;1.90;;;0.50;;
9240;SDS011;53485;49.326;9.738;2022-09-09T10:43:39;2.43;;;0.50;;
9240;SDS011;53485;49.326;9.738;2022-09-09T10:46:43;3.30;;;0.50;;
9240;SDS011;53485;49.326;9.738;2022-09-09T10:48:57;1.50;;;0.37;;
9240;SDS011;53485;49.326;9.738;2022-09-09T10:51:39;1.50;;;0.43;;
9240;SDS011;53485;49.326;9.738;2022-09-09T10:56:49;2.60;;;0.40;;
9240;SDS011;53485;49.326;9.738;2022-09-09T10:59:18;1.60;;;0.30;;
9240;SDS011;53485;49.326;9.738;2022-09-09T11:01:46;1.00;;;0.40;;
9240;SDS011;53485;49.326;9.738;2022-09-09T11:06:48;0.83;;;0.30;;
9240;SDS011;53485;49.326;9.738;2022-09-09T11:09:15;0.93;;;0.30;;
9240;SDS011;53485;49.326;9.738;2022-09-09T11:11:42;1.00;;;0.30;;
9240;SDS011;53485;49.326;9.738;2022-09-09T11:14:26;2.23;;;0.47;;
9240;SDS011;53485;49.326;9.738;2022-09-09T11:16:59;0.50;;;0.20;;
9240;SDS011;53485;49.326;9.738;2022-09-09T11:22:02;3.17;;;0.30;;
9240;SDS011;53485;49.326;9.738;2022-09-09T11:24:31;1.70;;;0.50;;
9240;SDS011;53485;49.326;9.738;2022-09-09T11:27:01;1.87;;;0.30;;
9240;SDS011;53485;49.326;9.738;2022-09-09T11:29:39;2.43;;;0.40;;
9240;SDS011;53485;49.326;9.738;2022-09-09T11:32:20;1.30;;;0.50;;
9240;SDS011;53485;49.326;9.738;2022-09-09T11:34:51;3.50;;;0.40;;
9240;SDS011;53485;49.326;9.738;2022-09-09T11:37:23;2.37;;;0.40;;
9240;SDS011;53485;49.326;9.738;2022-09-09T11:39:55;0.93;;;0.40;;
9240;SDS011;53485;49.326;9.738;2022-09-09T11:42:20;1.80;;;0.40;;
9240;SDS011;53485;49.326;9.738;2022-09-09T11:44:46;1.60;;;0.33;;
9240;SDS011;53485;49.326;9.738;2022-09-09T11:49:45;0.87;;;0.40;;
9240;SDS011;53485;49.326;9.738;2022-09-09T11:52:18;1.27;;;0.40;;
9240;SDS011;53485;49.326;9.738;2022-09-09T11:54:46;1.47;;;0.40;;
9240;SDS011;53485;49.326;9.738;2022-09-09T11:57:20;1.67;;;0.40;;
9240;SDS011;53485;49.326;9.738;2022-09-09T11:59:49;5.00;;;0.50;;
9240;SDS011;53485;49.326;9.738;2022-09-09T12:02:16;2.53;;;0.40;;
9240;SDS011;53485;49.326;9.738;2022-09-09T12:04:40;0.80;;;0.30;;
9240;SDS011;53485;49.326;9.738;2022-09-09T12:09:48;1.70;;;0.30;;
9240;SDS011;53485;49.326;9.738;2022-09-09T12:12:23;1.00;;;0.20;;
9240;SDS011;53485;49.326;9.738;2022-09-09T12:14:56;2.70;;;0.40;;
9240;SDS011;53485;49.326;9.738;2022-09-09T12:17:28;1.83;;;0.33;;
9240;SDS011;53485;49.326;9.738;2022-09-09T12:20:01;1.00;;;0.30;;
9240;SDS011;53485;49.326;9.738;2022-09-09T12:22:33;3.13;;;0.40;;
9240;SDS011;53485;49.326;9.738;2022-09-09T12:25:01;4.33;;;0.40;;
9240;SDS011;53485;49.326;9.738;2022-09-09T12:27:40;1.50;;;0.40;;
9240;SDS011;53485;49.326;9.738;2022-09-09T12:30:08;5.33;;;0.60;;
9240;SDS011;53485;49.326;9.738;2022-09-09T12:32:35;1.93;;;0.40;;
9240;SDS011;53485;49.326;9.738;2022-09-09T12:35:04;1.63;;;0.40;;
9240;SDS011;53485;49.326;9.738;2022-09-09T12:37:49;2.03;;;0.40;;
9240;SDS011;53485;49.326;9.738;2022-09-09T12:40:22;2.13;;;0.47;;
9240;SDS011;53485;49.326;9.738;2022-09-09T12:42:47;0.93;;;0.53;;
9240;SDS011;53485;49.326;9.738;2022-09-09T12:45:15;3.03;;;0.60;;
9240;SDS011;53485;49.326;9.738;2022-09-09T12:47:46;1.37;;;0.40;;
9240;SDS011;53485;49.326;9.738;2022-09-09T12:50:17;2.80;;;0.37;;
9240;SDS011;53485;49.326;9.738;2022-09-09T12:52:43;2.70;;;0.37;;
9240;SDS011;53485;49.326;9.738;2022-09-09T12:55:15;4.53;;;0.40;;
9240;SDS011;53485;49.326;9.738;2022-09-09T12:57:39;3.80;;;0.40;;
9240;SDS011;53485;49.326;9.738;2022-09-09T13:00:07;1.60;;;0.40;;
9240;SDS011;53485;49.326;9.738;2022-09-09T13:02:59;1.43;;;0.40;;
9240;SDS011;53485;49.326;9.738;2022-09-09T13:05:26;1.70;;;0.30;;
9240;SDS011;53485;49.326;9.738;2022-09-09T13:08:00;0.73;;;0.30;;
9240;SDS011;53485;49.326;9.738;2022-09-09T13:10:21;2.07;;;0.40;;
9240;SDS011;53485;49.326;9.738;2022-09-09T13:12:47;0.90;;;0.30;;
9240;SDS011;53485;49.326;9.738;2022-09-09T13:15:18;2.37;;;0.40;;
9240;SDS011;53485;49.326;9.738;2022-09-09T13:17:42;1.80;;;0.33;;
9240;SDS011;53485;49.326;9.738;2022-09-09T13:20:16;1.67;;;0.30;;
9240;SDS011;53485;49.326;9.738;2022-09-09T13:22:42;3.63;;;0.37;;
9240;SDS011;53485;49.326;9.738;2022-09-09T13:25:18;0.57;;;0.23;;
9240;SDS011;53485;49.326;9.738;2022-09-09T13:27:52;2.00;;;0.20;;
9240;SDS011;53485;49.326;9.738;2022-09-09T13:30:21;1.10;;;0.10;;
9240;SDS011;53485;49.326;9.738;2022-09-09T13:35:36;1.27;;;0.30;;
9240;SDS011;53485;49.326;9.738;2022-09-09T13:38:06;2.80;;;0.30;;
9240;SDS011;53485;49.326;9.738;2022-09-09T13:40:32;0.60;;;0.10;;
9240;SDS011;53485;49.326;9.738;2022-09-09T13:43:00;0.77;;;0.30;;
9240;SDS011;53485;49.326;9.738;2022-09-09T13:45:27;0.10;;;0.10;;
9240;SDS011;53485;49.326;9.738;2022-09-09T13:47:54;0.43;;;0.30;;
9240;SDS011;53485;49.326;9.738;2022-09-09T13:50:24;1.93;;;0.17;;
9240;SDS011;53485;49.326;9.738;2022-09-09T13:52:49;0.47;;;0.17;;
9240;SDS011;53485;49.326;9.738;2022-09-09T13:55:15;0.20;;;0.20;;
9240;SDS011;53485;49.326;9.738;2022-09-09T14:00:16;0.20;;;0.10;;
9240;SDS011;53485;49.326;9.738;2022-09-09T14:02:43;1.13;;;0.17;;
9240;SDS011;53485;49.326;9.738;2022-09-09T14:05:11;1.30;;;0.20;;
9240;SDS011;53485;49.326;9.738;2022-09-09T14:07:38;1.63;;;0.23;;
9240;SDS011;53485;49.326;9.738;2022-09-09T14:10:05;0.50;;;0.30;;
9240;SDS011;53485;49.326;9.738;2022-09-09T14:12:33;0.40;;;0.20;;
9240;SDS011;53485;49.326;9.738;2022-09-09T14:15:00;0.97;;;0.20;;
9240;SDS011;53485;49.326;9.738;2022-09-09T14:17:27;0.73;;;0.30;;
9240;SDS011;53485;49.326;9.738;2022-09-09T14:19:54;0.70;;;0.20;;
9240;SDS011;53485;49.326;9.738;2022-09-09T14:22:20;0.30;;;0.23;;
9240;SDS011;53485;49.326;9.738;2022-09-09T14:24:48;0.63;;;0.30;;
9240;SDS011;53485;49.326;9.738;2022-09-09T14:27:14;0.73;;;0.13;;
9240;SDS011;53485;49.326;9.738;2022-09-09T14:29:41;0.30;;;0.10;;
9240;SDS011;53485;49.326;9.738;2022-09-09T14:32:08;2.30;;;0.20;;
9240;SDS011;53485;49.326;9.738;2022-09-09T14:34:35;1.13;;;0.20;;
9240;SDS011;53485;49.326;9.738;2022-09-09T14:37:02;0.50;;;0.20;;
9240;SDS011;53485;49.326;9.738;2022-09-09T14:39:30;1.90;;;0.20;;
9240;SDS011;53485;49.326;9.738;2022-09-09T14:41:57;1.53;;;0.30;;
9240;SDS011;53485;49.326;9.738;2022-09-09T14:44:24;0.87;;;0.30;;
9240;SDS011;53485;49.326;9.738;2022-09-09T14:46:51;1.00;;;0.30;;
9240;SDS011;53485;49.326;9.738;2022-09-09T14:49:19;1.80;;;0.20;;
9240;SDS011;53485;49.326;9.738;2022-09-09T14:51:45;0.57;;;0.20;;
9240;SDS011;53485;49.326;9.738;2022-09-09T14:54:12;1.57;;;0.30;;
9240;SDS011;53485;49.326;9.738;2022-09-09T14:56:40;0.23;;;0.20;;
9240;SDS011;53485;49.326;9.738;2022-09-09T14:59:07;3.20;;;0.27;;
9240;SDS011;53485;49.326;9.738;2022-09-09T15:01:34;1.07;;;0.30;;
9240;SDS011;53485;49.326;9.738;2022-09-09T15:04:03;0.53;;;0.30;;
9240;SDS011;53485;49.326;9.738;2022-09-09T15:06:30;2.33;;;0.33;;
9240;SDS011;53485;49.326;9.738;2022-09-09T15:08:56;2.03;;;0.30;;
9240;SDS011;53485;49.326;9.738;2022-09-09T15:11:23;2.80;;;0.40;;
9240;SDS011;53485;49.326;9.738;2022-09-09T15:13:50;1.27;;;0.40;;
9240;SDS011;53485;49.326;9.738;2022-09-09T15:16:17;1.53;;;0.40;;
9240;SDS011;53485;49.326;9.738;2022-09-09T15:18:44;4.40;;;0.30;;
9240;SDS011;53485;49.326;9.738;2022-09-09T15:21:10;0.27;;;0.20;;
9240;SDS011;53485;49.326;9.738;2022-09-09T15:23:36;0.53;;;0.23;;
9240;SDS011;53485;49.326;9.738;2022-09-09T15:26:04;4.03;;;0.30;;
9240;SDS011;53485;49.326;9.738;2022-09-09T15:28:32;0.83;;;0.30;;
9240;SDS011;53485;49.326;9.738;2022-09-09T15:30:59;1.37;;;0.30;;
9240;SDS011;53485;49.326;9.738;2022-09-09T15:33:26;2.17;;;0.30;;
9240;SDS011;53485;49.326;9.738;2022-09-09T15:35:53;1.10;;;0.40;;
9240;SDS011;53485;49.326;9.738;2022-09-09T15:38:20;1.77;;;0.60;;
9240;SDS011;53485;49.326;9.738;2022-09-09T15:40:52;0.93;;;0.30;;
9240;SDS011;53485;49.326;9.738;2022-09-09T15:43:21;1.13;;;0.30;;
9240;SDS011;53485;49.326;9.738;2022-09-09T15:45:51;0.97;;;0.30;;
9240;SDS011;53485;49.326;9.738;2022-09-09T15:48:15;0.67;;;0.20;;
9240;SDS011;53485;49.326;9.738;2022-09-09T15:50:42;2.93;;;0.40;;
9240;SDS011;53485;49.326;9.738;2022-09-09T15:53:10;1.67;;;0.30;;
9240;SDS011;53485;49.326;9.738;2022-09-09T15:55:37;1.30;;;0.30;;